Taylors, SC (29687)

5:44 AM EDT on August 28, 2015 (GMT -0400)
Edward's Forest | | Change Station
CLOSE
Current Station
Personal Weather Station
Location: Taylors, SC
Elevation: 1000 ft
Nearby Weather Stations

Elev 1000 ft 34.93 °N, 82.33 °W | Updated 6 seconds ago

Overcast
Overcast
67.1 °F
Feels Like 67.1 °F
N
0.0
Wind Variable Wind from East
Gusts 2.0 mph

Today
High -- | Low -- °F
--% Chance of Precip.
Yesterday
High -- | Low -- °F
Precip. -- in
6:58 AM 8:01 PM
Waxing Gibbous, 97% visible
Pressure 30.11 in
Visibility 10.0 miles
Clouds Overcast 1300 ft
Dew Point 63 °F
Humidity 88%
Rainfall 0.00 in
Snow Depth Not available.
UV 0 out of 12
Pollen 8.00 out of 12
Air Quality Not available.
Flu Activity Not available.
METAR KGMU 280853Z AUTO 02005KT 10SM OVC013 20/16 A3014 RMK AO2 SLP196 T02000161 53002
Pressure 30.11 in
Visibility 10.0 miles
Clouds Overcast 1300 ft
Dew Point 63 °F
Humidity 88%
Rainfall 0.00 in
Snow Depth Not available.
UV 0 out of 12
Pollen 8.00 out of 12
Air Quality Not available.
Flu Activity Not available.
METAR KGMU 280853Z AUTO 02005KT 10SM OVC013 20/16 A3014 RMK AO2 SLP196 T02000161 53002

10-Day Weather Forecast

×

Almanac

Astronomy

Aug. 28, 2015 Rise Set
Actual Time
Civil Twilight
Nautical Twilight
Astronomical Twilight
Moon
Length of Visible Light
Length of Day
Tomorrow will be .
, % of the Moon is Illuminated

Today's Extremes

State Highs State Lows

Community

WunderPhotos

Upload Photos

1,850,352 photos uploaded!

WunderBlogs® & News

Nearby

Air Quality

  Air Quality AQ Index Pollutant
Not available.

Snow Depth

Station Depth Elevation

Earthquake Activity

City Distance Mag. Time & Date
Minimum magnitude displayed is 2.5.

Coastal Water Temperatures

Place Temperature

Stations

Nearby Weather Stations

Station Location Temp. Windchill Dew Point Humidity Wind Precip. Elev Updated Type